createdAt,value
2023-09-11T00:04:57.141Z,17.00
2023-09-11T00:09:59.419Z,17.09
2023-09-11T00:15:01.651Z,17.13
2023-09-11T00:20:11.434Z,17.16
2023-09-11T00:25:13.535Z,17.13
2023-09-11T00:30:15.348Z,17.14
2023-09-11T00:35:17.551Z,17.12
2023-09-11T00:40:19.545Z,17.11
2023-09-11T00:45:21.407Z,17.11
2023-09-11T00:50:24.167Z,17.13
2023-09-11T00:55:27.859Z,17.16
2023-09-11T01:00:30.046Z,17.19
2023-09-11T01:05:33.382Z,17.24
2023-09-11T01:10:36.648Z,17.25
2023-09-11T01:16:03.771Z,17.27
2023-09-11T01:21:43.894Z,17.32
2023-09-11T01:27:22.253Z,17.35
2023-09-11T01:32:26.882Z,17.35
2023-09-11T01:37:31.239Z,17.36
2023-09-11T01:42:48.569Z,17.37
2023-09-11T01:47:52.838Z,17.36
2023-09-11T01:52:55.099Z,17.32
2023-09-11T01:57:57.042Z,17.23
2023-09-11T02:02:59.260Z,17.10
2023-09-11T02:08:01.247Z,16.97
2023-09-11T02:13:03.418Z,16.84
2023-09-11T02:18:05.485Z,16.70
2023-09-11T02:23:07.477Z,16.59
2023-09-11T02:28:09.542Z,16.47
2023-09-11T02:33:11.743Z,16.35
2023-09-11T02:38:14.416Z,16.23
2023-09-11T02:43:16.765Z,16.14
2023-09-11T02:48:18.849Z,16.07
2023-09-11T02:53:21.534Z,16.01
2023-09-11T02:58:24.011Z,15.93
2023-09-11T03:03:26.218Z,15.86
2023-09-11T03:08:29.808Z,15.78
2023-09-11T03:13:32.583Z,15.72
2023-09-11T03:18:34.768Z,15.66
2023-09-11T03:23:37.409Z,15.60
2023-09-11T03:28:39.974Z,15.58
2023-09-11T03:33:42.722Z,15.56
2023-09-11T03:38:45.608Z,15.49
2023-09-11T03:43:47.794Z,15.40
2023-09-11T03:48:50.271Z,15.34
2023-09-11T03:53:52.789Z,15.30
2023-09-11T03:58:56.961Z,15.24
2023-09-11T04:07:13.610Z,14.96
2023-09-11T04:12:19.325Z,14.98
2023-09-11T04:17:21.380Z,15.10
2023-09-11T04:22:23.525Z,15.16
2023-09-11T04:27:25.948Z,15.24
2023-09-11T04:32:28.112Z,15.30
2023-09-11T04:37:31.357Z,15.41
2023-09-11T04:42:34.830Z,15.72
2023-09-11T04:47:37.159Z,16.65
2023-09-11T04:52:40.632Z,17.85
2023-09-11T04:57:43.222Z,18.78
2023-09-11T05:02:47.673Z,19.00
2023-09-11T05:07:49.871Z,18.92
2023-09-11T05:12:52.778Z,19.26
2023-09-11T05:17:54.945Z,20.23
2023-09-11T05:22:56.906Z,21.04
2023-09-11T05:27:58.794Z,21.22
2023-09-11T05:33:01.148Z,21.22
2023-09-11T05:38:03.597Z,21.21
2023-09-11T05:43:05.579Z,21.19
2023-09-11T05:48:07.694Z,21.14
2023-09-11T05:53:09.591Z,21.12
2023-09-11T05:58:11.483Z,21.13
2023-09-11T06:03:13.433Z,21.20
2023-09-11T06:08:16.413Z,21.35
2023-09-11T06:13:18.522Z,21.51
2023-09-11T06:18:20.683Z,21.69
2023-09-11T06:23:22.616Z,21.88
2023-09-11T06:28:24.850Z,22.05
2023-09-11T06:33:28.965Z,22.19
2023-09-11T06:38:31.001Z,22.33
2023-09-11T06:43:33.191Z,22.46
2023-09-11T06:48:35.152Z,22.59
2023-09-11T06:53:37.187Z,22.87
2023-09-11T06:58:40.289Z,23.28
2023-09-11T07:03:43.217Z,23.57
2023-09-11T07:08:45.270Z,23.91
2023-09-11T07:13:47.308Z,24.26
2023-09-11T07:18:50.474Z,24.60
2023-09-11T07:23:52.724Z,24.91
2023-09-11T07:28:55.673Z,25.28
2023-09-11T07:33:57.613Z,25.57
2023-09-11T07:38:59.463Z,25.85
2023-09-11T07:44:01.381Z,26.10
2023-09-11T07:49:03.419Z,26.19
2023-09-11T07:54:05.562Z,26.10
2023-09-11T07:59:07.483Z,26.11
2023-09-11T08:04:09.503Z,26.17
2023-09-11T08:09:11.835Z,26.32
2023-09-11T08:14:13.752Z,26.53
2023-09-11T08:19:16.035Z,26.71
2023-09-11T08:24:17.823Z,26.92
2023-09-11T08:29:19.793Z,27.13
2023-09-11T08:34:21.775Z,27.31
2023-09-11T08:39:24.489Z,27.58
2023-09-11T08:44:27.262Z,27.91
2023-09-11T08:49:34.683Z,28.29
2023-09-11T08:54:42.202Z,28.65
2023-09-11T08:59:48.348Z,28.91
2023-09-11T09:04:52.201Z,29.13
2023-09-11T09:09:54.902Z,29.34
2023-09-11T09:14:57.954Z,29.62
2023-09-11T09:19:59.997Z,29.81
2023-09-11T09:25:02.151Z,29.97
2023-09-11T09:30:04.610Z,30.40
2023-09-11T09:35:07.619Z,30.71
2023-09-11T09:40:09.951Z,30.90
2023-09-11T09:45:29.802Z,31.14
2023-09-11T09:50:47.112Z,31.40
2023-09-11T09:55:49.038Z,31.59
2023-09-11T10:00:57.929Z,31.81
2023-09-11T10:05:59.795Z,32.01
2023-09-11T10:11:01.867Z,32.18
2023-09-11T10:16:04.603Z,32.29
2023-09-11T10:21:07.052Z,32.36
2023-09-11T10:26:10.725Z,32.39
2023-09-11T10:31:21.576Z,32.42
2023-09-11T10:36:34.491Z,32.60
2023-09-11T10:41:37.051Z,32.81
2023-09-11T10:46:40.467Z,32.93
2023-09-11T10:51:42.596Z,32.91
2023-09-11T10:56:44.750Z,33.02
2023-09-11T11:01:48.093Z,33.01
2023-09-11T11:06:52.052Z,32.79
2023-09-11T11:11:58.056Z,32.63
2023-09-11T11:17:09.819Z,32.67
2023-09-11T11:22:30.848Z,32.76
2023-09-11T11:27:32.686Z,32.96
2023-09-11T11:32:36.433Z,33.04
2023-09-11T11:37:45.376Z,33.20
2023-09-11T11:42:47.528Z,33.45
2023-09-11T11:47:51.199Z,33.33
2023-09-11T11:52:53.086Z,33.34
2023-09-11T11:57:55.693Z,33.60
2023-09-11T12:03:10.936Z,33.86
2023-09-11T12:08:13.981Z,34.02
2023-09-11T12:13:24.603Z,34.18
2023-09-11T12:18:32.621Z,34.61
2023-09-11T12:23:35.643Z,34.68
2023-09-11T12:28:38.047Z,34.52
2023-09-11T12:33:40.031Z,34.67
2023-09-11T12:38:46.847Z,34.21
2023-09-11T12:43:48.875Z,33.22
2023-09-11T12:48:52.926Z,32.90
2023-09-11T12:53:54.970Z,33.42
2023-09-11T12:58:57.580Z,33.89
2023-09-11T13:03:59.956Z,33.89
2023-09-11T13:09:04.132Z,33.86
2023-09-11T13:14:15.172Z,33.64
2023-09-11T13:19:18.664Z,33.21
2023-09-11T13:24:20.870Z,32.87
2023-09-11T13:29:22.798Z,33.26
2023-09-11T13:34:24.842Z,33.77
2023-09-11T13:39:26.790Z,33.70
2023-09-11T13:44:28.630Z,33.68
2023-09-11T13:49:30.580Z,34.14
2023-09-11T13:54:32.690Z,34.96
2023-09-11T13:59:34.539Z,35.66
2023-09-11T14:04:36.851Z,36.03
2023-09-11T14:09:38.853Z,36.36
2023-09-11T14:14:40.670Z,36.56
2023-09-11T14:19:42.568Z,36.58
2023-09-11T14:24:44.402Z,36.25
2023-09-11T14:29:46.252Z,35.71
2023-09-11T14:34:48.320Z,35.35
2023-09-11T14:39:50.514Z,35.40
2023-09-11T14:44:53.240Z,35.45
2023-09-11T14:49:58.179Z,35.34
2023-09-11T14:55:00.373Z,35.49
2023-09-11T15:00:04.159Z,35.62
2023-09-11T15:05:06.602Z,35.61
2023-09-11T15:10:08.646Z,35.53
2023-09-11T15:15:11.062Z,35.41
2023-09-11T15:20:13.223Z,35.13
2023-09-11T15:25:15.086Z,34.62
2023-09-11T15:30:16.904Z,34.22
2023-09-11T15:35:19.441Z,33.91
2023-09-11T15:40:21.307Z,33.64
2023-09-11T15:45:23.223Z,33.71
2023-09-11T15:50:25.054Z,33.93
2023-09-11T15:55:27.030Z,34.04
2023-09-11T16:00:29.771Z,34.01
2023-09-11T16:05:32.127Z,33.61
2023-09-11T16:10:34.210Z,33.23
2023-09-11T16:15:38.417Z,33.04
2023-09-11T16:20:43.198Z,32.92
2023-09-11T16:25:46.361Z,32.58
2023-09-11T16:30:48.284Z,32.18
2023-09-11T16:35:50.269Z,31.83
2023-09-11T16:40:52.385Z,31.32
2023-09-11T16:45:54.444Z,30.68
2023-09-11T16:50:56.295Z,29.95
2023-09-11T16:55:58.183Z,29.22
2023-09-11T17:01:07.026Z,28.46
2023-09-11T17:06:08.933Z,27.74
2023-09-11T17:11:10.745Z,27.10
2023-09-11T17:16:12.642Z,26.51
2023-09-11T17:21:15.197Z,25.99
2023-09-11T17:26:17.474Z,25.51
2023-09-11T17:31:19.355Z,25.05
2023-09-11T17:36:21.326Z,24.64
2023-09-11T17:41:23.258Z,24.22
2023-09-11T17:46:25.162Z,23.99
2023-09-11T17:51:27.090Z,23.95
2023-09-11T17:56:28.884Z,23.96
2023-09-11T18:01:30.789Z,23.86
2023-09-11T18:06:32.651Z,23.80
2023-09-11T18:11:34.659Z,23.73
2023-09-11T18:16:36.449Z,23.59
2023-09-11T18:21:40.724Z,23.41
2023-09-11T18:26:43.600Z,23.25
2023-09-11T18:31:46.046Z,23.11
2023-09-11T18:36:49.238Z,23.01
2023-09-11T18:41:55.309Z,22.90
2023-09-11T18:46:57.086Z,22.74
2023-09-11T18:51:59.104Z,22.62
2023-09-11T18:57:02.188Z,22.52
2023-09-11T19:02:04.539Z,22.40
2023-09-11T19:07:06.367Z,22.26
2023-09-11T19:12:08.326Z,22.14
2023-09-11T19:17:11.217Z,22.04
2023-09-11T19:22:14.440Z,21.94
2023-09-11T19:27:16.405Z,21.84
2023-09-11T19:32:18.329Z,21.71
2023-09-11T19:37:20.107Z,21.55
2023-09-11T19:42:22.387Z,21.40
2023-09-11T19:47:26.067Z,21.23
2023-09-11T19:52:29.358Z,21.05
2023-09-11T19:57:34.976Z,20.85
2023-09-11T20:02:37.526Z,20.71
2023-09-11T20:07:39.515Z,20.61
2023-09-11T20:12:42.618Z,20.46
2023-09-11T20:17:45.239Z,20.39
2023-09-11T20:22:47.301Z,20.27
2023-09-11T20:27:49.168Z,20.14
2023-09-11T20:32:51.124Z,20.04
2023-09-11T20:37:53.263Z,20.01
2023-09-11T20:42:55.213Z,19.95
2023-09-11T20:47:57.374Z,19.85
2023-09-11T20:52:59.409Z,19.75
2023-09-11T20:58:01.289Z,19.64
2023-09-11T21:03:03.715Z,19.59
2023-09-11T21:08:05.891Z,19.49
2023-09-11T21:13:08.120Z,19.43
2023-09-11T21:18:10.611Z,19.37
2023-09-11T21:23:12.623Z,19.35
2023-09-11T21:28:14.440Z,19.35
2023-09-11T21:33:16.482Z,19.36
2023-09-11T21:38:18.557Z,19.33
2023-09-11T21:43:20.762Z,19.26
2023-09-11T21:48:22.796Z,19.19
2023-09-11T21:53:25.028Z,19.12
2023-09-11T21:58:26.965Z,19.08
2023-09-11T22:03:29.014Z,19.05
2023-09-11T22:08:31.112Z,19.01
2023-09-11T22:13:33.116Z,18.99
2023-09-11T22:18:34.992Z,18.95
2023-09-11T22:23:36.965Z,18.88
2023-09-11T22:28:38.881Z,18.80
2023-09-11T22:33:41.268Z,18.75
2023-09-11T22:38:44.469Z,18.65
2023-09-11T22:43:46.275Z,18.58
2023-09-11T22:48:48.270Z,18.51
2023-09-11T22:53:50.276Z,18.45
2023-09-11T22:58:52.184Z,18.32
2023-09-11T23:03:54.178Z,18.16
2023-09-11T23:08:56.335Z,18.08
2023-09-11T23:13:59.630Z,18.02
2023-09-11T23:19:01.717Z,17.94
2023-09-11T23:24:14.626Z,17.85
2023-09-11T23:29:19.329Z,17.76
2023-09-11T23:34:21.407Z,17.68
2023-09-11T23:39:23.631Z,17.63
2023-09-11T23:44:25.871Z,17.54
2023-09-11T23:49:27.798Z,17.50
2023-09-11T23:54:29.663Z,17.48
2023-09-11T23:59:32.560Z,17.38
